createdAt,value
2018-05-09T00:00:43.807Z,55.60
2018-05-09T00:03:10.431Z,54.80
2018-05-09T00:05:37.063Z,55.00
2018-05-09T00:08:02.964Z,55.10
2018-05-09T00:10:28.871Z,55.40
2018-05-09T00:12:54.783Z,55.40
2018-05-09T00:15:20.693Z,55.60
2018-05-09T00:17:46.599Z,55.60
2018-05-09T00:20:12.516Z,55.80
2018-05-09T00:22:38.427Z,56.60
2018-05-09T00:25:05.093Z,56.50
2018-05-09T00:27:30.989Z,56.50
2018-05-09T00:29:56.876Z,56.60
2018-05-09T00:32:22.782Z,57.10
2018-05-09T00:34:48.677Z,57.10
2018-05-09T00:37:14.588Z,57.60
2018-05-09T00:39:40.475Z,57.90
2018-05-09T00:42:07.108Z,58.30
2018-05-09T00:44:33.765Z,58.40
2018-05-09T00:46:59.663Z,58.50
2018-05-09T00:49:26.307Z,59.10
2018-05-09T00:51:52.985Z,59.10
2018-05-09T00:54:27.063Z,59.10
2018-05-09T00:56:53.715Z,59.80
2018-05-09T00:59:19.607Z,59.80
2018-05-09T01:01:46.290Z,60.40
2018-05-09T01:04:12.177Z,60.20
2018-05-09T01:06:38.832Z,60.80
2018-05-09T01:09:04.737Z,60.60
2018-05-09T01:11:31.382Z,61.10
2018-05-09T01:13:58.052Z,61.80
2018-05-09T01:16:23.950Z,61.90
2018-05-09T01:18:49.857Z,62.10
2018-05-09T01:21:16.499Z,62.40
2018-05-09T01:23:43.142Z,62.90
2018-05-09T01:26:09.049Z,62.80
2018-05-09T01:28:35.679Z,63.70
2018-05-09T01:31:02.318Z,64.60
2018-05-09T01:33:28.950Z,64.60
2018-05-09T01:35:55.617Z,64.10
2018-05-09T01:38:21.528Z,64.90
2018-05-09T01:40:48.170Z,65.10
2018-05-09T01:43:14.088Z,65.10
2018-05-09T01:45:40.730Z,65.40
2018-05-09T01:48:06.625Z,65.40
2018-05-09T01:50:32.529Z,65.50
2018-05-09T01:52:58.457Z,65.50
2018-05-09T01:55:24.370Z,65.50
2018-05-09T01:57:50.262Z,65.60
2018-05-09T02:00:16.141Z,65.80
2018-05-09T02:02:42.792Z,66.30
2018-05-09T02:05:08.694Z,66.20
2018-05-09T02:07:35.374Z,66.00
2018-05-09T02:10:01.265Z,66.00
2018-05-09T02:12:27.890Z,67.10
2018-05-09T02:15:01.653Z,67.30
2018-05-09T02:17:27.551Z,67.30
2018-05-09T02:19:53.451Z,67.80
2018-05-09T02:22:19.349Z,68.70
2018-05-09T02:24:45.252Z,69.70
2018-05-09T02:27:11.183Z,70.20
2018-05-09T02:29:37.089Z,70.90
2018-05-09T02:32:02.997Z,71.80
2018-05-09T02:34:28.972Z,71.60
2018-05-09T02:36:55.604Z,73.00
2018-05-09T02:39:22.243Z,73.70
2018-05-09T02:41:48.905Z,73.80
2018-05-09T02:44:14.813Z,73.80
2018-05-09T02:46:40.693Z,74.20
2018-05-09T02:49:06.589Z,74.10
2018-05-09T02:51:32.489Z,74.30
2018-05-09T02:53:58.460Z,74.50
2018-05-09T02:56:24.389Z,74.80
2018-05-09T02:58:50.272Z,75.50
2018-05-09T03:01:16.170Z,76.60
2018-05-09T03:03:42.078Z,77.50
2018-05-09T03:06:07.999Z,77.80
2018-05-09T03:08:33.919Z,78.50
2018-05-09T03:10:59.813Z,78.40
2018-05-09T03:13:25.701Z,79.10
2018-05-09T03:15:51.608Z,79.20
2018-05-09T03:18:17.498Z,80.00
2018-05-09T03:20:43.447Z,80.10
2018-05-09T03:23:09.355Z,80.50
2018-05-09T03:25:35.256Z,80.70
2018-05-09T03:28:01.897Z,81.90
2018-05-09T03:30:27.800Z,82.00
2018-05-09T03:32:54.453Z,82.70
2018-05-09T03:35:21.085Z,83.10
2018-05-09T03:37:46.974Z,83.10
2018-05-09T03:40:12.868Z,83.00
2018-05-09T03:42:38.753Z,83.00
2018-05-09T03:45:04.889Z,83.60
2018-05-09T03:47:30.788Z,83.80
2018-05-09T03:49:57.415Z,83.30
2018-05-09T03:52:23.326Z,83.30
2018-05-09T03:54:49.268Z,83.10
2018-05-09T03:57:15.929Z,82.70
2018-05-09T03:59:41.805Z,82.60
2018-05-09T04:02:20.163Z,82.30
2018-05-09T04:08:03.160Z,82.40
2018-05-09T04:10:29.061Z,82.30
2018-05-09T04:12:54.950Z,82.70
2018-05-09T04:15:20.863Z,83.00
2018-05-09T04:17:46.753Z,82.90
2018-05-09T04:20:13.418Z,83.50
2018-05-09T04:22:39.315Z,84.20
2018-05-09T04:25:05.945Z,83.60
2018-05-09T04:27:31.841Z,83.60
2018-05-09T04:29:57.734Z,83.50
2018-05-09T04:32:23.637Z,82.70
2018-05-09T04:34:49.537Z,82.90
2018-05-09T04:37:16.190Z,82.10
2018-05-09T04:39:42.108Z,82.10
2018-05-09T04:42:08.008Z,81.40
2018-05-09T04:44:34.665Z,80.80
2018-05-09T04:47:01.296Z,80.30
2018-05-09T04:49:27.938Z,79.40
2018-05-09T04:51:54.590Z,79.10
2018-05-09T04:54:20.496Z,79.10
2018-05-09T04:56:46.429Z,78.30
2018-05-09T04:59:12.317Z,76.70
2018-05-09T05:01:38.198Z,72.80
2018-05-09T05:04:04.117Z,69.60
2018-05-09T05:06:30.003Z,68.10
2018-05-09T05:08:56.133Z,64.70
2018-05-09T05:11:22.038Z,63.40
2018-05-09T05:13:48.783Z,64.40
2018-05-09T05:16:14.694Z,64.50
2018-05-09T05:18:41.335Z,67.80
2018-05-09T05:21:07.975Z,67.50
2018-05-09T05:23:34.604Z,67.70
2018-05-09T05:26:01.252Z,66.60
2018-05-09T05:28:27.913Z,66.30
2018-05-09T05:30:53.812Z,66.30
2018-05-09T05:33:20.458Z,66.10
2018-05-09T05:35:46.359Z,66.70
2018-05-09T05:38:12.996Z,65.20
2018-05-09T05:40:39.668Z,66.60
2018-05-09T05:43:05.594Z,66.60
2018-05-09T05:45:31.514Z,66.20
2018-05-09T05:47:57.395Z,66.40
2018-05-09T05:50:24.035Z,64.40
2018-05-09T05:52:50.672Z,64.20
2018-05-09T05:55:17.353Z,63.00
2018-05-09T05:57:43.275Z,62.90
2018-05-09T06:00:09.181Z,61.60
2018-05-09T06:02:35.102Z,60.90
2018-05-09T06:05:01.023Z,59.00
2018-05-09T06:07:26.938Z,57.30
2018-05-09T06:09:52.930Z,58.10
2018-05-09T06:12:19.578Z,57.10
2018-05-09T06:14:46.234Z,55.30
2018-05-09T06:17:12.146Z,55.40
2018-05-09T06:19:38.771Z,51.50
2018-05-09T06:22:05.427Z,52.00
2018-05-09T06:24:31.320Z,52.00
2018-05-09T06:26:57.264Z,52.00
2018-05-09T06:29:23.945Z,50.40
2018-05-09T06:31:49.833Z,50.20
2018-05-09T06:34:15.752Z,50.80
2018-05-09T06:36:41.640Z,49.20
2018-05-09T06:39:07.545Z,47.80
2018-05-09T06:41:33.537Z,46.00
2018-05-09T06:43:59.347Z,44.60
2018-05-09T06:46:25.269Z,42.80
2018-05-09T06:48:51.168Z,42.80
2018-05-09T06:51:17.814Z,41.50
2018-05-09T06:53:43.730Z,41.60
2018-05-09T06:56:10.374Z,41.50
2018-05-09T06:58:36.285Z,41.50
2018-05-09T07:01:02.944Z,39.80
2018-05-09T07:03:28.847Z,39.90
2018-05-09T07:05:54.770Z,38.20
2018-05-09T07:08:20.681Z,39.40
2018-05-09T07:10:47.348Z,39.60
2018-05-09T07:13:13.245Z,39.60
2018-05-09T07:15:39.882Z,41.00
2018-05-09T07:18:05.780Z,41.00
2018-05-09T07:20:31.681Z,39.00
2018-05-09T07:22:57.605Z,39.40
2018-05-09T07:25:23.502Z,39.20
2018-05-09T07:27:49.417Z,40.20
2018-05-09T07:30:15.371Z,39.20
2018-05-09T07:32:41.271Z,39.70
2018-05-09T07:35:07.178Z,38.90
2018-05-09T07:37:33.086Z,38.40
2018-05-09T07:39:58.972Z,37.70
2018-05-09T07:42:25.600Z,38.80
2018-05-09T07:44:51.528Z,38.80
2018-05-09T07:47:18.192Z,37.30
2018-05-09T07:49:44.120Z,37.40
2018-05-09T07:52:10.033Z,37.30
2018-05-09T07:54:35.936Z,37.40
2018-05-09T07:57:02.685Z,35.60
2018-05-09T07:59:29.329Z,35.00
2018-05-09T08:01:55.216Z,35.00
2018-05-09T08:04:21.125Z,36.60
2018-05-09T08:06:47.049Z,36.30
2018-05-09T08:09:12.977Z,35.50
2018-05-09T08:11:39.623Z,33.10
2018-05-09T08:14:05.548Z,33.80
2018-05-09T08:16:32.195Z,34.80
2018-05-09T08:18:58.841Z,34.30
2018-05-09T08:21:24.745Z,34.30
2018-05-09T08:23:51.395Z,32.50
2018-05-09T08:26:18.057Z,33.00
2018-05-09T08:28:43.953Z,32.40
2018-05-09T08:31:09.857Z,32.70
2018-05-09T08:33:35.782Z,31.50
2018-05-09T08:36:02.442Z,31.00
2018-05-09T08:38:28.357Z,31.00
2018-05-09T08:40:55.010Z,30.10
2018-05-09T08:43:21.016Z,30.00
2018-05-09T08:45:46.844Z,31.80
2018-05-09T08:48:12.757Z,33.10
2018-05-09T08:50:38.668Z,33.00
2018-05-09T08:53:05.325Z,33.80
2018-05-09T08:55:31.256Z,33.80
2018-05-09T08:57:57.145Z,32.20
2018-05-09T09:00:23.803Z,29.40
2018-05-09T09:02:49.723Z,29.40
2018-05-09T09:05:15.638Z,29.80
2018-05-09T09:07:42.307Z,32.70
2018-05-09T09:10:08.223Z,29.00
2018-05-09T09:12:34.152Z,29.30
2018-05-09T09:15:00.053Z,29.90
2018-05-09T09:17:25.981Z,30.70
2018-05-09T09:19:51.890Z,29.10
2018-05-09T09:22:17.793Z,29.80
2018-05-09T09:24:44.437Z,28.40
2018-05-09T09:27:11.079Z,27.80
2018-05-09T09:29:37.028Z,27.50
2018-05-09T09:32:02.927Z,27.70
2018-05-09T09:34:28.853Z,27.20
2018-05-09T10:11:30.290Z,27.00
2018-05-09T10:13:56.210Z,28.60
2018-05-09T11:20:23.404Z,26.80
2018-05-09T11:22:50.060Z,26.70
2018-05-09T11:30:11.380Z,25.70
2018-05-09T11:32:38.008Z,26.40
2018-05-09T11:35:03.923Z,26.40
2018-05-09T11:37:29.919Z,26.50
2018-05-09T11:39:56.501Z,28.50
2018-05-09T11:42:23.239Z,29.20
2018-05-09T11:44:49.913Z,30.60
2018-05-09T11:47:15.845Z,30.60
2018-05-09T11:49:41.794Z,31.40
2018-05-09T11:52:07.714Z,31.70
2018-05-09T11:54:33.647Z,31.50
2018-05-09T11:56:59.550Z,31.80
2018-05-09T11:59:26.085Z,32.60
2018-05-09T12:01:51.999Z,32.70
2018-05-09T12:04:17.896Z,32.00
2018-05-09T12:06:43.792Z,32.30
2018-05-09T12:09:09.710Z,32.40
2018-05-09T12:11:36.357Z,31.90
2018-05-09T12:14:02.264Z,31.90
2018-05-09T12:16:28.886Z,33.30
2018-05-09T12:18:55.538Z,32.00
2018-05-09T12:21:22.481Z,33.30
2018-05-09T12:23:48.386Z,33.30
2018-05-09T12:26:14.282Z,33.60
2018-05-09T12:28:40.163Z,34.20
2018-05-09T12:31:06.068Z,33.50
2018-05-09T12:33:32.691Z,34.60
2018-05-09T12:35:59.352Z,35.20
2018-05-09T12:38:25.242Z,35.20
2018-05-09T12:40:51.151Z,34.70
2018-05-09T12:43:17.055Z,35.60
2018-05-09T12:45:42.951Z,34.10
2018-05-09T12:48:08.875Z,34.30
2018-05-09T12:50:34.788Z,34.00
2018-05-09T12:53:00.723Z,32.70
2018-05-09T12:55:26.657Z,32.00
2018-05-09T12:57:52.544Z,31.40
2018-05-09T13:00:18.463Z,31.60
2018-05-09T13:02:44.349Z,31.20
2018-05-09T13:17:28.804Z,29.20
2018-05-09T13:19:55.443Z,28.90
2018-05-09T13:22:22.089Z,29.00
2018-05-09T13:24:48.714Z,29.60
2018-05-09T13:27:15.366Z,30.20
2018-05-09T13:29:41.270Z,30.20
2018-05-09T13:32:07.900Z,29.40
2018-05-09T13:34:34.656Z,30.00
2018-05-09T13:37:00.551Z,30.00
2018-05-09T13:41:54.132Z,30.60
2018-05-09T13:44:20.074Z,29.40
2018-05-09T14:03:59.830Z,28.80
2018-05-09T14:06:26.475Z,29.50
2018-05-09T14:08:53.136Z,29.80
2018-05-09T14:18:42.926Z,29.20
2018-05-09T14:21:09.559Z,30.60
2018-05-09T14:23:36.205Z,30.50
2018-05-09T14:26:02.836Z,29.20
2018-05-09T14:28:29.476Z,29.80
2018-05-09T14:30:56.130Z,29.40
2018-05-09T14:38:17.860Z,29.30
2018-05-09T14:45:39.948Z,29.90
2018-05-09T14:48:05.882Z,29.90
2018-05-09T14:50:31.780Z,29.50
2018-05-09T14:52:58.414Z,29.70
2018-05-09T14:55:25.061Z,29.80
2018-05-09T14:57:51.692Z,30.20
2018-05-09T15:00:18.393Z,29.80
2018-05-09T15:02:44.276Z,29.80
2018-05-09T15:05:10.195Z,29.40
2018-05-09T15:07:36.095Z,29.50
2018-05-09T15:10:02.747Z,30.20
2018-05-09T15:12:28.659Z,30.10
2018-05-09T15:14:54.561Z,30.30
2018-05-09T15:17:21.235Z,29.80
2018-05-09T15:19:47.245Z,29.80
2018-05-09T15:22:13.142Z,29.30
2018-05-09T15:24:39.797Z,31.20
2018-05-09T15:27:06.451Z,49.90
2018-05-09T15:29:32.385Z,49.80
2018-05-09T15:31:58.282Z,32.30
2018-05-09T15:34:24.190Z,31.80
2018-05-09T15:36:50.839Z,32.70
2018-05-09T15:39:16.744Z,32.70
2018-05-09T15:41:43.396Z,33.30
2018-05-09T15:44:09.308Z,33.20
2018-05-09T15:46:35.941Z,32.90
2018-05-09T15:49:02.578Z,32.90
2018-05-09T15:51:29.213Z,32.80
2018-05-09T15:53:55.869Z,32.30
2018-05-09T15:56:21.863Z,32.30
2018-05-09T15:58:48.518Z,32.30
2018-05-09T16:01:15.162Z,32.70
2018-05-09T16:03:41.852Z,33.50
2018-05-09T16:06:07.779Z,33.50
2018-05-09T16:08:33.676Z,34.00
2018-05-09T16:11:06.601Z,34.50
2018-05-09T16:13:32.503Z,34.40
2018-05-09T16:15:58.403Z,34.40
2018-05-09T16:18:24.310Z,34.00
2018-05-09T16:20:50.213Z,34.40
2018-05-09T16:23:16.964Z,34.90
2018-05-09T16:25:42.872Z,34.90
2018-05-09T16:28:08.775Z,35.40
2018-05-09T16:30:35.434Z,35.90
2018-05-09T16:33:01.347Z,35.90
2018-05-09T16:35:27.999Z,36.20
2018-05-09T16:37:53.931Z,36.30
2018-05-09T16:40:19.863Z,36.70
2018-05-09T16:42:45.776Z,37.20
2018-05-09T16:45:11.748Z,37.40
2018-05-09T16:47:37.577Z,37.50
2018-05-09T16:50:04.233Z,37.50
2018-05-09T16:52:30.155Z,37.50
2018-05-09T16:54:56.092Z,37.50
2018-05-09T16:57:21.982Z,37.50
2018-05-09T16:59:48.606Z,37.20
2018-05-09T17:02:14.509Z,37.20
2018-05-09T17:04:40.423Z,38.00
2018-05-09T17:07:06.321Z,37.40
2018-05-09T17:09:32.221Z,37.60
2018-05-09T17:11:58.112Z,37.50
2018-05-09T17:14:24.769Z,37.90
2018-05-09T17:16:50.676Z,37.90
2018-05-09T17:19:16.624Z,38.10
2018-05-09T17:21:56.682Z,37.90
2018-05-09T17:24:22.875Z,37.80
2018-05-09T17:26:49.530Z,37.70
2018-05-09T17:29:15.417Z,37.70
2018-05-09T17:31:41.324Z,37.50
2018-05-09T17:34:07.314Z,37.50
2018-05-09T17:36:33.225Z,37.60
2018-05-09T17:38:59.151Z,37.70
2018-05-09T17:41:25.068Z,37.60
2018-05-09T17:43:50.958Z,37.70
2018-05-09T17:46:17.605Z,37.60
2018-05-09T17:48:44.255Z,38.50
2018-05-09T17:51:10.189Z,38.60
2018-05-09T17:53:36.124Z,41.20
2018-05-09T17:56:02.051Z,44.10
2018-05-09T17:58:27.998Z,45.70
2018-05-09T18:00:53.945Z,47.40
2018-05-09T18:03:20.596Z,51.40
2018-05-09T18:05:46.514Z,51.40
2018-05-09T18:08:12.421Z,61.20
2018-05-09T18:10:39.161Z,99.60
2018-05-09T18:13:05.885Z,99.90
2018-05-09T18:15:31.839Z,99.90
2018-05-09T18:20:27.017Z,99.90
2018-05-09T18:22:52.960Z,99.90
2018-05-09T18:25:19.610Z,99.90
2018-05-09T18:27:46.264Z,99.90
2018-05-09T18:30:12.188Z,99.90
2018-05-09T18:32:38.100Z,99.90
2018-05-09T18:35:04.020Z,99.90
2018-05-09T18:37:30.087Z,99.90
2018-05-09T18:39:56.115Z,99.90
2018-05-09T18:42:21.935Z,99.90
2018-05-09T18:44:47.955Z,99.90
2018-05-09T18:47:13.851Z,99.90
2018-05-09T18:49:39.766Z,99.90
2018-05-09T18:52:05.884Z,99.90
2018-05-09T18:54:31.800Z,99.90
2018-05-09T18:56:57.716Z,99.90
2018-05-09T18:59:23.617Z,99.90
2018-05-09T19:01:50.345Z,99.90
2018-05-09T19:04:16.280Z,99.90
2018-05-09T19:06:42.976Z,99.90
2018-05-09T19:09:08.926Z,99.90
2018-05-09T19:11:34.848Z,99.90
2018-05-09T19:14:00.795Z,99.90
2018-05-09T19:16:26.855Z,99.90
2018-05-09T19:18:52.685Z,99.90
2018-05-09T19:21:18.595Z,99.90
2018-05-09T19:23:44.544Z,99.90
2018-05-09T19:26:10.470Z,99.90
2018-05-09T19:28:36.428Z,99.90
2018-05-09T19:31:02.260Z,99.90
2018-05-09T19:33:28.165Z,99.90
2018-05-09T19:35:54.080Z,99.90
2018-05-09T19:38:20.725Z,99.90
2018-05-09T19:40:46.634Z,99.90
2018-05-09T19:43:13.298Z,99.90
2018-05-09T19:45:39.208Z,99.90
2018-05-09T19:48:05.100Z,99.90
2018-05-09T19:50:31.783Z,99.30
2018-05-09T19:52:57.687Z,99.40
2018-05-09T19:55:23.613Z,99.90
2018-05-09T19:57:49.528Z,99.70
2018-05-09T20:00:15.466Z,99.90
2018-05-09T20:02:41.387Z,99.90
2018-05-09T20:05:07.297Z,99.90
2018-05-09T20:07:33.239Z,99.90
2018-05-09T20:09:59.146Z,99.90
2018-05-09T20:12:25.044Z,99.90
2018-05-09T20:14:50.932Z,99.90
2018-05-09T20:17:16.842Z,99.90
2018-05-09T20:19:42.784Z,99.90
2018-05-09T20:22:09.426Z,99.90
2018-05-09T20:24:36.075Z,99.90
2018-05-09T20:27:02.716Z,99.90
2018-05-09T20:29:28.634Z,99.90
2018-05-09T20:32:06.993Z,99.90
2018-05-09T20:34:32.913Z,99.90
2018-05-09T20:36:58.833Z,98.40
2018-05-09T20:39:24.747Z,97.30
2018-05-09T20:41:50.646Z,95.70
2018-05-09T20:44:17.055Z,95.00
2018-05-09T20:46:43.709Z,92.60
2018-05-09T20:49:09.620Z,92.60
2018-05-09T20:51:48.609Z,89.20
2018-05-09T20:54:14.532Z,89.20
2018-05-09T20:56:40.433Z,89.90
2018-05-09T20:59:06.351Z,90.40
2018-05-09T21:01:44.695Z,89.60
2018-05-09T21:04:11.385Z,90.10
2018-05-09T21:06:37.307Z,89.20
2018-05-09T21:09:04.229Z,87.20
2018-05-09T21:11:30.100Z,83.60
2018-05-09T21:13:56.006Z,82.70
2018-05-09T21:16:21.943Z,81.90
2018-05-09T21:18:47.855Z,81.70
2018-05-09T21:21:13.794Z,82.50
2018-05-09T21:23:39.685Z,82.80
2018-05-09T21:26:05.649Z,83.00
2018-05-09T21:28:31.607Z,82.30
2018-05-09T21:30:57.472Z,83.20
2018-05-09T21:33:23.393Z,82.70
2018-05-09T21:35:49.273Z,82.70
2018-05-09T21:38:15.157Z,82.60
2018-05-09T21:40:41.835Z,82.90
2018-05-09T21:43:07.736Z,82.80
2018-05-09T21:45:33.649Z,82.40
2018-05-09T21:48:00.282Z,83.80
2018-05-09T21:50:26.925Z,84.70
2018-05-09T21:52:53.617Z,86.40
2018-05-09T21:55:19.535Z,86.40
2018-05-09T21:57:45.463Z,89.00
2018-05-09T22:00:11.431Z,90.00
2018-05-09T22:02:37.333Z,91.50
2018-05-09T22:05:03.984Z,92.00
2018-05-09T22:07:30.635Z,92.90
2018-05-09T22:09:56.556Z,92.90
2018-05-09T22:12:22.481Z,94.10
2018-05-09T22:14:48.494Z,95.00
2018-05-09T22:17:14.392Z,96.20
2018-05-09T22:19:41.036Z,97.40
2018-05-09T22:22:07.701Z,97.60
2018-05-09T22:24:33.619Z,97.70
2018-05-09T22:27:00.107Z,99.30
2018-05-09T22:29:26.042Z,99.90
2018-05-09T22:31:52.737Z,99.90
2018-05-09T22:34:18.640Z,99.90
2018-05-09T22:36:44.533Z,99.90
2018-05-09T22:39:11.148Z,97.60
2018-05-09T22:41:37.071Z,97.60
2018-05-09T22:44:02.972Z,97.00
2018-05-09T22:46:28.868Z,97.50
2018-05-09T22:48:56.023Z,97.00
2018-05-09T22:51:21.939Z,96.80
2018-05-09T22:53:47.842Z,97.10
2018-05-09T22:56:13.743Z,97.70
2018-05-09T22:58:40.394Z,96.70
2018-05-09T23:01:06.289Z,96.80
2018-05-09T23:03:32.186Z,96.30
2018-05-09T23:05:58.135Z,96.30
2018-05-09T23:08:24.784Z,96.00
2018-05-09T23:10:51.442Z,95.60
2018-05-09T23:13:17.387Z,95.60
2018-05-09T23:15:43.293Z,96.10
2018-05-09T23:18:09.208Z,96.30
2018-05-09T23:20:35.101Z,96.90
2018-05-09T23:23:01.762Z,97.80
2018-05-09T23:25:27.658Z,97.70
2018-05-09T23:27:54.312Z,98.40
2018-05-09T23:30:20.226Z,98.40
2018-05-09T23:32:46.905Z,99.70
2018-05-09T23:35:12.820Z,99.80
2018-05-09T23:37:38.699Z,99.90
2018-05-09T23:40:05.349Z,99.90
2018-05-09T23:42:31.263Z,99.90
2018-05-09T23:44:57.185Z,99.90
2018-05-09T23:47:23.101Z,99.90
2018-05-09T23:49:49.730Z,99.90
2018-05-09T23:52:16.541Z,99.90
2018-05-09T23:54:43.292Z,99.90
2018-05-09T23:57:09.222Z,99.90
2018-05-09T23:59:35.148Z,99.90
